Time;durP1;ratioP1;P1;durP2;ratioP2;P2;SDS_P1;SDS_P2;PMS_P1;PMS_P2;Temp;Humidity;BMP_temperature;BMP_pressure;BME280_temperature;BME280_humidity;BME280_pressure;Samples;Min_cycle;Max_cycle;Signal;HPM_P1;HPM_P2
2023/01/31 00:01:29;;;;;;;21.27;2.88;;;4.10;99.90;;;;;;5036823;28;20456;-84
2023/01/31 00:03:57;;;;;;;21.65;3.15;;;4.00;99.90;;;;;;5030642;28;20053;-84
2023/01/31 00:06:25;;;;;;;18.10;2.88;;;4.00;99.90;;;;;;5041143;28;20056;-84
2023/01/31 00:08:52;;;;;;;17.15;2.55;;;4.00;99.90;;;;;;5038376;28;20044;-84
2023/01/31 00:11:19;;;;;;;24.23;2.53;;;4.00;99.90;;;;;;5020333;28;20128;-84
2023/01/31 00:13:46;;;;;;;19.02;2.13;;;3.90;99.90;;;;;;5025137;28;20117;-84
2023/01/31 00:16:13;;;;;;;16.35;2.55;;;3.90;99.90;;;;;;5040302;28;20045;-84
2023/01/31 00:18:39;;;;;;;19.25;3.03;;;3.90;99.90;;;;;;5046587;28;20057;-84
2023/01/31 00:21:10;;;;;;;21.90;2.17;;;3.90;99.90;;;;;;5041545;28;20052;-83
2023/01/31 00:23:38;;;;;;;21.67;2.90;;;3.90;99.90;;;;;;5042208;28;20040;-84
2023/01/31 00:26:31;;;;;;;17.63;2.22;;;3.80;99.90;;;;;;5042818;28;20083;-84
2023/01/31 00:28:58;;;;;;;17.42;2.53;;;3.80;99.90;;;;;;5053548;28;20081;-84
2023/01/31 00:31:25;;;;;;;32.45;3.70;;;3.80;99.90;;;;;;5041919;28;20033;-84
2023/01/31 00:33:53;;;;;;;20.60;3.00;;;3.80;99.90;;;;;;5043527;28;20044;-84
2023/01/31 00:36:21;;;;;;;19.45;2.67;;;3.80;99.90;;;;;;5047365;28;20560;-84
2023/01/31 00:38:52;;;;;;;20.80;2.78;;;3.80;99.90;;;;;;5048475;28;20117;-84
2023/01/31 00:41:20;;;;;;;12.85;2.75;;;3.70;99.90;;;;;;5040314;28;20116;-84
2023/01/31 00:43:45;;;;;;;17.13;1.85;;;3.80;99.90;;;;;;5031567;28;20440;-84
2023/01/31 00:46:11;;;;;;;21.75;2.67;;;3.70;99.90;;;;;;5049109;28;20116;-83
2023/01/31 00:48:37;;;;;;;16.48;3.53;;;3.80;99.90;;;;;;5049060;28;20400;-83
2023/01/31 00:51:03;;;;;;;22.35;3.00;;;3.80;99.90;;;;;;5027181;28;20112;-84
2023/01/31 00:53:29;;;;;;;20.35;3.05;;;3.80;99.90;;;;;;5046546;28;20044;-84
2023/01/31 00:56:03;;;;;;;20.30;2.50;;;3.80;99.90;;;;;;5048056;28;20033;-84
2023/01/31 00:58:29;;;;;;;19.33;2.45;;;3.80;99.90;;;;;;5027975;28;20037;-84
2023/01/31 01:00:55;;;;;;;17.60;3.38;;;3.80;99.90;;;;;;5044944;28;20040;-84
2023/01/31 01:03:21;;;;;;;20.38;3.05;;;3.80;99.90;;;;;;5047874;28;20045;-83
2023/01/31 01:05:47;;;;;;;18.42;1.88;;;3.80;99.90;;;;;;5023469;28;20527;-83
2023/01/31 01:08:13;;;;;;;22.80;3.58;;;3.80;99.90;;;;;;5026778;28;20041;-84
2023/01/31 01:10:38;;;;;;;18.75;2.08;;;3.80;99.90;;;;;;5046863;28;20041;-84
2023/01/31 01:13:07;;;;;;;9.27;2.00;;;3.70;99.90;;;;;;5044269;28;20046;-83
2023/01/31 01:15:36;;;;;;;18.17;2.40;;;3.70;99.90;;;;;;5050663;28;20038;-83
2023/01/31 01:18:02;;;;;;;27.60;2.85;;;3.70;99.90;;;;;;5051086;28;20049;-84
2023/01/31 01:20:27;;;;;;;15.55;2.15;;;3.60;99.90;;;;;;5045501;28;20041;-84
2023/01/31 01:22:53;;;;;;;16.23;2.63;;;3.60;99.90;;;;;;5052530;28;20070;-84
2023/01/31 01:25:19;;;;;;;18.63;2.97;;;3.50;99.90;;;;;;5041470;28;20098;-84
2023/01/31 01:27:45;;;;;;;14.15;2.72;;;3.50;99.90;;;;;;5051074;28;20049;-84
2023/01/31 01:30:10;;;;;;;18.50;1.98;;;3.40;99.90;;;;;;5050815;28;20044;-83
2023/01/31 01:32:37;;;;;;;20.60;2.25;;;3.40;99.90;;;;;;5051299;28;20048;-84
2023/01/31 01:35:02;;;;;;;19.13;2.10;;;3.30;99.90;;;;;;5051563;28;20495;-84
2023/01/31 01:37:29;;;;;;;18.83;2.55;;;3.20;99.90;;;;;;5049182;28;20057;-84
2023/01/31 01:39:55;;;;;;;14.05;2.13;;;3.20;99.90;;;;;;5042080;28;20081;-84
2023/01/31 01:42:23;;;;;;;18.20;2.35;;;3.30;99.90;;;;;;5044555;28;20484;-84
2023/01/31 01:44:55;;;;;;;16.15;2.58;;;3.20;99.90;;;;;;5046801;28;20137;-84
2023/01/31 01:47:41;;;;;;;16.10;2.67;;;3.20;99.90;;;;;;5046309;28;20484;-83
2023/01/31 01:50:34;;;;;;;21.17;2.72;;;3.20;99.90;;;;;;5041725;28;20105;-83
2023/01/31 01:53:22;;;;;;;26.13;2.05;;;3.20;99.90;;;;;;5063107;28;20053;-83
2023/01/31 01:56:04;;;;;;;13.73;1.85;;;3.20;99.90;;;;;;5044673;28;20380;-83
2023/01/31 01:58:32;;;;;;;18.05;2.50;;;3.00;99.90;;;;;;5050076;28;20053;-84
2023/01/31 02:00:58;;;;;;;21.65;2.17;;;3.30;99.90;;;;;;5050306;28;20044;-84
2023/01/31 02:03:25;;;;;;;15.88;1.63;;;3.20;99.90;;;;;;5031093;28;20041;-84
2023/01/31 02:06:09;;;;;;;14.07;2.20;;;3.20;99.90;;;;;;5047770;28;20040;-83
2023/01/31 02:08:38;;;;;;;16.47;3.03;;;3.30;99.90;;;;;;5064136;28;20036;-84
2023/01/31 02:11:25;;;;;;;12.95;2.05;;;3.30;99.90;;;;;;5041690;28;20287;-83
2023/01/31 02:13:59;;;;;;;17.83;3.10;;;3.30;99.90;;;;;;5019026;28;20048;-84
2023/01/31 02:16:25;;;;;;;14.32;2.42;;;3.40;99.90;;;;;;5051977;28;20162;-84
2023/01/31 02:18:51;;;;;;;20.05;3.17;;;3.40;99.90;;;;;;5066504;28;20124;-84
2023/01/31 02:21:49;;;;;;;17.38;2.78;;;3.40;99.90;;;;;;5040627;28;20577;-84
2023/01/31 02:24:17;;;;;;;18.90;2.20;;;3.40;99.90;;;;;;5051146;28;20073;-84
2023/01/31 02:27:14;;;;;;;15.18;2.20;;;3.40;99.90;;;;;;5056483;28;20049;-84
2023/01/31 02:30:15;;;;;;;13.30;1.95;;;3.40;99.90;;;;;;5037640;28;20045;-84
2023/01/31 02:33:06;;;;;;;15.50;1.85;;;3.50;99.90;;;;;;5026279;28;20040;-83
2023/01/31 02:35:52;;;;;;;17.15;2.20;;;3.50;99.90;;;;;;5043018;28;20095;-84
2023/01/31 02:38:39;;;;;;;13.20;1.73;;;3.50;99.90;;;;;;5047992;28;20041;-83
2023/01/31 02:41:37;;;;;;;13.68;2.17;;;3.50;99.90;;;;;;5061786;28;20046;-84
2023/01/31 02:47:14;;;;;;;14.20;1.80;;;3.50;99.90;;;;;;5050457;28;20112;-84
2023/01/31 02:50:15;;;;;;;14.40;2.00;;;3.50;99.90;;;;;;5041218;28;20046;-84
2023/01/31 02:53:10;;;;;;;13.52;1.75;;;3.50;99.90;;;;;;4982127;28;20504;-84
2023/01/31 02:58:28;;;;;;;15.00;2.20;;;3.50;99.90;;;;;;4978901;28;20144;-84
2023/01/31 03:00:58;;;;;;;17.65;1.88;;;3.50;99.90;;;;;;4969517;28;20101;-84
2023/01/31 03:03:30;;;;;;;13.93;1.95;;;3.50;99.90;;;;;;4971612;28;20050;-83
2023/01/31 03:06:21;;;;;;;12.98;1.85;;;3.50;99.90;;;;;;4990583;28;20539;-84
2023/01/31 03:08:56;;;;;;;10.48;1.40;;;3.50;99.90;;;;;;4977213;28;20596;-84
2023/01/31 03:11:29;;;;;;;15.82;2.30;;;3.50;99.90;;;;;;4966852;28;20046;-84
2023/01/31 03:14:09;;;;;;;15.02;2.13;;;3.50;99.90;;;;;;4969505;28;20043;-84
2023/01/31 03:19:51;;;;;;;16.73;1.88;;;3.50;99.90;;;;;;4969595;28;20623;-84
2023/01/31 03:22:26;;;;;;;13.98;1.88;;;3.50;99.90;;;;;;4978027;28;20085;-84
2023/01/31 03:24:53;;;;;;;16.10;2.33;;;3.60;99.90;;;;;;4978801;28;20054;-84
2023/01/31 03:27:20;;;;;;;10.20;1.83;;;3.60;99.90;;;;;;4983091;28;20279;-84
2023/01/31 03:29:47;;;;;;;12.23;1.88;;;3.60;99.90;;;;;;5032915;28;20041;-84
2023/01/31 03:32:19;;;;;;;12.02;1.58;;;3.70;99.90;;;;;;5060357;28;20037;-83
2023/01/31 03:34:46;;;;;;;16.20;2.58;;;3.70;99.90;;;;;;5040208;28;20044;-84
2023/01/31 03:37:33;;;;;;;17.10;1.98;;;3.70;99.90;;;;;;5046900;28;20041;-84
2023/01/31 03:40:15;;;;;;;17.08;2.70;;;3.70;99.90;;;;;;5043063;28;20044;-84
2023/01/31 03:43:24;;;;;;;15.55;1.63;;;3.80;99.90;;;;;;5048700;28;20037;-84
2023/01/31 03:45:59;;;;;;;16.38;1.73;;;3.80;99.90;;;;;;5033578;28;20045;-84
2023/01/31 03:48:34;;;;;;;9.38;1.40;;;3.80;99.90;;;;;;5042454;28;20060;-84
2023/01/31 03:51:05;;;;;;;16.27;1.70;;;3.80;99.90;;;;;;5038972;28;20484;-84
2023/01/31 03:53:47;;;;;;;10.38;1.90;;;3.80;99.90;;;;;;5048823;28;20043;-84
2023/01/31 03:56:37;;;;;;;19.40;2.33;;;3.90;99.90;;;;;;5040616;28;20065;-83
2023/01/31 03:59:12;;;;;;;14.80;1.98;;;3.90;99.90;;;;;;5032447;28;20863;-84
2023/01/31 04:01:43;;;;;;;21.15;3.50;;;4.00;99.90;;;;;;5039561;28;20115;-84
2023/01/31 04:04:21;;;;;;;13.35;1.73;;;4.00;99.90;;;;;;5060972;28;20044;-84
2023/01/31 04:06:49;;;;;;;14.85;2.13;;;4.00;99.90;;;;;;5046415;28;20117;-84
2023/01/31 04:09:15;;;;;;;19.90;2.85;;;4.00;99.90;;;;;;5024341;28;20377;-84
2023/01/31 04:11:45;;;;;;;15.50;1.83;;;4.10;99.90;;;;;;5046770;28;20051;-84
2023/01/31 04:14:11;;;;;;;17.08;2.10;;;4.20;99.90;;;;;;5042149;28;20033;-84
2023/01/31 04:16:36;;;;;;;20.73;2.45;;;4.20;99.90;;;;;;5036778;28;20052;-83
2023/01/31 04:19:02;;;;;;;13.50;2.42;;;4.30;99.90;;;;;;5046104;28;20127;-84
2023/01/31 04:21:28;;;;;;;18.50;2.35;;;4.30;99.90;;;;;;5023841;28;20496;-84
2023/01/31 04:23:54;;;;;;;22.13;3.08;;;4.30;99.90;;;;;;5042558;28;20347;-84
2023/01/31 04:26:19;;;;;;;16.67;2.67;;;4.40;99.90;;;;;;5001685;28;1163668;-84
2023/01/31 04:28:45;;;;;;;17.00;2.25;;;4.40;99.90;;;;;;5037265;28;20053;-84
2023/01/31 04:31:10;;;;;;;20.60;2.55;;;4.50;99.90;;;;;;5026376;28;20120;-84
2023/01/31 04:33:36;;;;;;;11.63;2.25;;;4.50;99.90;;;;;;5049237;28;20044;-84
2023/01/31 04:36:02;;;;;;;15.00;2.13;;;4.50;99.90;;;;;;5046299;28;20531;-83
2023/01/31 04:38:28;;;;;;;20.90;3.05;;;4.60;99.90;;;;;;5049642;28;20037;-84
2023/01/31 04:40:53;;;;;;;19.65;4.07;;;4.60;99.90;;;;;;5049448;28;20033;-84
2023/01/31 04:43:19;;;;;;;17.77;2.88;;;4.60;99.90;;;;;;5030260;28;20041;-84
2023/01/31 04:45:45;;;;;;;20.95;3.28;;;4.60;99.90;;;;;;5047827;28;20052;-84
2023/01/31 04:48:10;;;;;;;18.10;2.75;;;4.70;99.90;;;;;;5048859;28;20049;-84
2023/01/31 04:50:36;;;;;;;25.33;3.40;;;4.70;99.90;;;;;;5047929;28;20049;-84
2023/01/31 04:53:01;;;;;;;21.05;3.15;;;4.70;99.90;;;;;;5043578;28;20030;-83
2023/01/31 04:55:27;;;;;;;24.58;2.90;;;4.80;99.90;;;;;;5043915;28;20029;-84
2023/01/31 04:57:53;;;;;;;24.92;3.28;;;4.80;99.90;;;;;;5024102;28;20067;-84
2023/01/31 05:00:19;;;;;;;19.02;2.95;;;4.80;99.90;;;;;;5042302;28;20461;-84
2023/01/31 05:02:45;;;;;;;32.38;3.65;;;4.90;99.90;;;;;;5044604;28;20095;-84
2023/01/31 05:05:13;;;;;;;19.73;3.25;;;4.90;99.90;;;;;;5040486;28;20037;-84
2023/01/31 05:07:39;;;;;;;22.33;5.53;;;4.90;99.90;;;;;;5044874;28;20037;-84
2023/01/31 05:10:05;;;;;;;20.08;2.92;;;5.40;99.90;;;;;;5027685;28;20033;-84
2023/01/31 05:12:32;;;;;;;23.17;3.33;;;5.00;99.90;;;;;;5035904;28;20056;-84
2023/01/31 05:14:57;;;;;;;13.13;3.75;;;4.90;99.90;;;;;;5045316;28;20449;-84
2023/01/31 05:17:28;;;;;;;15.63;3.08;;;4.90;99.90;;;;;;5041093;28;20045;-84
2023/01/31 05:19:55;;;;;;;15.38;2.53;;;4.90;99.90;;;;;;5048310;28;20108;-84
2023/01/31 05:22:21;;;;;;;21.25;3.40;;;4.90;99.90;;;;;;5038568;28;20056;-84
2023/01/31 05:24:47;;;;;;;15.32;2.78;;;4.90;99.90;;;;;;5040819;28;20045;-84
2023/01/31 05:27:13;;;;;;;17.42;3.20;;;5.20;99.90;;;;;;5046977;28;20064;-84
2023/01/31 05:29:38;;;;;;;21.73;3.88;;;4.90;99.90;;;;;;5046438;28;20060;-84
2023/01/31 05:32:04;;;;;;;26.27;3.53;;;5.70;99.90;;;;;;5045717;28;20069;-84
2023/01/31 05:34:32;;;;;;;26.17;4.57;;;4.20;99.90;;;;;;5036602;28;20041;-84
2023/01/31 05:36:58;;;;;;;27.08;3.92;;;5.00;99.90;;;;;;5037048;28;20050;-84
2023/01/31 05:39:24;;;;;;;23.00;3.70;;;5.00;99.90;;;;;;5036498;28;20123;-84
2023/01/31 05:41:49;;;;;;;27.27;3.97;;;5.00;99.90;;;;;;5038577;28;20095;-84
2023/01/31 05:44:15;;;;;;;29.55;3.33;;;5.00;99.90;;;;;;5044010;28;20033;-84
2023/01/31 05:46:41;;;;;;;25.48;3.95;;;5.20;99.90;;;;;;5044367;28;20123;-83
2023/01/31 05:49:08;;;;;;;24.77;4.65;;;5.10;99.90;;;;;;5045576;28;20049;-84
2023/01/31 05:51:33;;;;;;;24.88;4.30;;;5.10;99.90;;;;;;5043928;28;20091;-84
2023/01/31 05:53:59;;;;;;;20.52;5.32;;;5.10;99.90;;;;;;5045145;28;20103;-84
2023/01/31 05:56:25;;;;;;;27.75;4.88;;;5.10;99.90;;;;;;5049473;28;20056;-82
2023/01/31 05:58:50;;;;;;;21.50;3.55;;;5.20;99.90;;;;;;5050152;28;20055;-86
2023/01/31 06:01:21;;;;;;;20.30;3.65;;;5.10;99.90;;;;;;5051820;28;20502;-84
2023/01/31 06:03:47;;;;;;;21.33;3.63;;;5.20;99.90;;;;;;5049374;28;20052;-84
2023/01/31 06:06:13;;;;;;;23.20;4.05;;;5.20;99.90;;;;;;5049275;28;20041;-83
2023/01/31 06:08:39;;;;;;;19.70;3.60;;;5.20;99.90;;;;;;5029267;28;20036;-84
2023/01/31 06:11:05;;;;;;;20.45;4.07;;;5.20;99.90;;;;;;5041425;28;20124;-83
2023/01/31 06:13:31;;;;;;;16.38;3.85;;;5.20;99.90;;;;;;5046596;28;20458;-83
2023/01/31 06:15:57;;;;;;;16.60;4.03;;;5.20;99.90;;;;;;5050648;28;20037;-84
2023/01/31 06:18:23;;;;;;;23.83;3.75;;;5.20;99.90;;;;;;5060417;28;20053;-83
2023/01/31 06:20:49;;;;;;;18.60;4.47;;;5.20;99.90;;;;;;5043877;28;20582;-83
2023/01/31 06:23:15;;;;;;;19.25;4.30;;;5.20;99.90;;;;;;5062399;28;20065;-83
2023/01/31 06:25:40;;;;;;;20.85;3.78;;;5.30;99.90;;;;;;5051295;28;20048;-84
2023/01/31 06:28:06;;;;;;;22.38;4.50;;;5.30;99.90;;;;;;5043078;28;20049;-84
2023/01/31 06:30:32;;;;;;;24.77;4.80;;;5.30;99.90;;;;;;5050466;28;20041;-84
2023/01/31 06:33:01;;;;;;;28.90;4.60;;;5.30;99.90;;;;;;5041342;28;20121;-84
2023/01/31 06:35:27;;;;;;;16.33;4.07;;;5.30;99.90;;;;;;5034193;28;20487;-84
2023/01/31 06:37:54;;;;;;;24.20;4.55;;;5.30;99.90;;;;;;5051485;28;20086;-83
2023/01/31 06:40:22;;;;;;;25.58;5.75;;;5.30;99.90;;;;;;5049503;28;20083;-83
2023/01/31 06:42:48;;;;;;;19.48;4.60;;;5.30;99.90;;;;;;5032376;28;20503;-81
2023/01/31 06:45:14;;;;;;;20.30;4.20;;;5.30;99.90;;;;;;5048504;28;20091;-82
2023/01/31 06:47:39;;;;;;;24.35;5.63;;;5.40;99.90;;;;;;5043386;28;20163;-82
2023/01/31 06:50:05;;;;;;;25.30;5.68;;;5.40;99.90;;;;;;5049093;28;20033;-82
2023/01/31 06:52:31;;;;;;;28.20;5.35;;;5.40;99.90;;;;;;5051239;28;20112;-82
2023/01/31 06:54:57;;;;;;;27.67;5.10;;;5.40;99.90;;;;;;5046987;28;20566;-82
2023/01/31 06:57:22;;;;;;;27.13;4.05;;;5.50;99.90;;;;;;5043951;28;20045;-82
2023/01/31 06:59:48;;;;;;;22.42;4.75;;;5.50;99.90;;;;;;5043175;28;20395;-83
2023/01/31 07:02:13;;;;;;;29.00;4.07;;;5.50;99.90;;;;;;5019565;28;20041;-83
2023/01/31 07:04:39;;;;;;;26.88;3.97;;;5.50;99.90;;;;;;5047647;28;20040;-83
2023/01/31 07:07:05;;;;;;;26.45;5.55;;;5.80;99.90;;;;;;5049274;28;20538;-84
2023/01/31 07:09:30;;;;;;;28.77;4.53;;;5.50;99.90;;;;;;5039750;28;20045;-84
2023/01/31 07:11:56;;;;;;;20.83;3.85;;;5.50;99.90;;;;;;5040964;28;20033;-92
2023/01/31 07:14:21;;;;;;;20.60;3.92;;;5.60;99.90;;;;;;5043984;28;20108;-81
2023/01/31 07:16:47;;;;;;;22.45;4.15;;;5.60;99.90;;;;;;5043418;28;20420;-82
2023/01/31 07:19:12;;;;;;;23.55;4.43;;;5.60;99.90;;;;;;5047072;28;20040;-82
2023/01/31 07:21:38;;;;;;;20.83;4.97;;;5.60;99.90;;;;;;5048702;28;20043;-82
2023/01/31 07:24:04;;;;;;;21.30;3.55;;;5.60;99.90;;;;;;5049633;28;20033;-81
2023/01/31 07:26:29;;;;;;;13.65;3.38;;;5.60;99.90;;;;;;5045192;28;20052;-81
2023/01/31 07:28:55;;;;;;;17.98;4.35;;;5.60;99.90;;;;;;5038335;28;20080;-83
2023/01/31 07:31:21;;;;;;;19.08;4.00;;;5.60;99.90;;;;;;5043486;28;20072;-81
2023/01/31 07:33:46;;;;;;;22.85;3.35;;;5.70;99.90;;;;;;5045609;28;20036;-82
2023/01/31 07:36:14;;;;;;;18.58;3.72;;;5.70;99.90;;;;;;5045121;28;20033;-82
2023/01/31 07:38:40;;;;;;;22.98;3.58;;;5.70;99.90;;;;;;5045638;28;20052;-82
2023/01/31 07:41:07;;;;;;;20.48;3.45;;;5.70;99.90;;;;;;5037694;28;20475;-82
2023/01/31 07:43:33;;;;;;;26.58;3.25;;;5.70;99.90;;;;;;5049195;28;20068;-83
2023/01/31 07:45:59;;;;;;;14.40;3.47;;;5.70;99.90;;;;;;5046089;28;20978;-82
2023/01/31 07:48:25;;;;;;;13.82;2.97;;;5.80;99.90;;;;;;5041368;28;20088;-83
2023/01/31 07:50:52;;;;;;;17.50;3.28;;;5.80;99.90;;;;;;5050439;28;20037;-83
2023/01/31 07:53:19;;;;;;;13.30;2.63;;;5.80;99.90;;;;;;5039812;28;20234;-82
2023/01/31 07:55:46;;;;;;;19.80;4.20;;;5.80;99.90;;;;;;5036260;28;20049;-83
2023/01/31 07:58:15;;;;;;;20.33;3.38;;;5.80;99.90;;;;;;5049679;28;20037;-83
2023/01/31 08:03:31;;;;;;;16.27;3.88;;;5.90;99.90;;;;;;5050438;28;20080;-83
2023/01/31 08:05:57;;;;;;;20.17;3.15;;;5.90;99.90;;;;;;5045783;28;20479;-83
2023/01/31 08:08:23;;;;;;;19.70;4.28;;;5.90;99.90;;;;;;5045558;28;20049;-82
2023/01/31 08:10:48;;;;;;;20.15;3.47;;;5.90;99.90;;;;;;5047069;28;20032;-83
2023/01/31 08:13:14;;;;;;;12.07;2.47;;;6.00;99.90;;;;;;5042563;28;20101;-83
2023/01/31 08:15:39;;;;;;;14.88;2.92;;;6.00;99.90;;;;;;5045658;28;20043;-82
2023/01/31 08:18:05;;;;;;;20.45;2.60;;;6.00;99.90;;;;;;5044932;28;20037;-82
2023/01/31 08:20:31;;;;;;;18.85;3.20;;;6.00;99.90;;;;;;5048743;28;20056;-83
2023/01/31 08:22:58;;;;;;;12.35;2.72;;;6.00;99.90;;;;;;5048701;28;20041;-83
2023/01/31 08:25:27;;;;;;;20.92;3.38;;;6.00;99.90;;;;;;5050142;28;20061;-83
2023/01/31 08:27:53;;;;;;;13.57;3.00;;;6.00;99.90;;;;;;5048647;28;20127;-82
2023/01/31 08:30:19;;;;;;;16.85;3.30;;;6.00;99.90;;;;;;5050531;28;20029;-83
2023/01/31 08:32:45;;;;;;;13.55;3.10;;;6.10;99.90;;;;;;5046444;28;20048;-82
2023/01/31 08:35:10;;;;;;;18.70;2.88;;;6.10;99.90;;;;;;5038927;28;20029;-82
2023/01/31 08:37:36;;;;;;;11.80;2.35;;;6.10;99.90;;;;;;5042301;28;20128;-83
2023/01/31 08:40:02;;;;;;;16.27;2.70;;;6.10;99.90;;;;;;5038119;28;20461;-83
2023/01/31 08:42:28;;;;;;;17.40;3.78;;;6.10;99.90;;;;;;5043064;28;20160;-83
2023/01/31 08:44:53;;;;;;;14.80;2.88;;;6.10;99.90;;;;;;5045679;28;20103;-82
2023/01/31 08:47:19;;;;;;;15.25;2.95;;;6.10;99.90;;;;;;5049945;28;20037;-83
2023/01/31 08:49:45;;;;;;;19.67;3.17;;;6.10;99.90;;;;;;5038591;28;20403;-83
2023/01/31 08:52:10;;;;;;;18.58;2.60;;;6.20;99.90;;;;;;5045078;28;20065;-82
2023/01/31 08:54:36;;;;;;;14.45;2.60;;;6.70;99.90;;;;;;5048198;28;20394;-83
2023/01/31 08:57:01;;;;;;;16.35;2.53;;;6.20;99.90;;;;;;5043921;28;20040;-82
2023/01/31 08:59:28;;;;;;;15.98;3.78;;;6.20;99.90;;;;;;5048431;28;20048;-83
2023/01/31 09:01:53;;;;;;;15.82;2.58;;;6.80;99.90;;;;;;5043947;28;20051;-82
2023/01/31 09:04:19;;;;;;;17.65;3.28;;;6.30;99.90;;;;;;5046848;28;20120;-82
2023/01/31 09:06:44;;;;;;;20.58;3.00;;;6.40;99.90;;;;;;5032100;28;20040;-83
2023/01/31 09:09:10;;;;;;;9.55;2.03;;;6.30;99.90;;;;;;5042467;28;20062;-82
2023/01/31 09:11:36;;;;;;;16.33;3.50;;;6.40;99.90;;;;;;5050233;28;20045;-83
2023/01/31 09:14:02;;;;;;;18.83;3.63;;;6.30;99.90;;;;;;5049907;28;20037;-83
2023/01/31 09:16:27;;;;;;;12.82;3.20;;;6.40;99.90;;;;;;5045842;28;20141;-82
2023/01/31 09:18:54;;;;;;;15.77;3.17;;;6.40;99.90;;;;;;5047745;28;20036;-83
2023/01/31 09:21:21;;;;;;;12.10;2.80;;;6.40;99.90;;;;;;5039883;28;20046;-83
2023/01/31 09:23:52;;;;;;;14.68;2.63;;;6.40;99.90;;;;;;5051282;28;20028;-83
2023/01/31 09:26:19;;;;;;;19.48;3.00;;;6.40;99.90;;;;;;5052836;28;20064;-83
2023/01/31 09:28:44;;;;;;;15.93;2.67;;;6.50;99.90;;;;;;5048352;28;20037;-82
2023/01/31 09:31:13;;;;;;;16.20;2.78;;;6.40;99.90;;;;;;5042766;28;20090;-82
2023/01/31 09:33:39;;;;;;;14.40;2.78;;;6.40;99.90;;;;;;5048193;28;20037;-83
2023/01/31 09:36:10;;;;;;;17.60;2.55;;;6.40;99.90;;;;;;5046808;28;20404;-83
2023/01/31 09:38:36;;;;;;;12.35;2.42;;;6.50;99.90;;;;;;5040453;28;20045;-83
2023/01/31 09:41:13;;;;;;;16.67;3.00;;;6.50;99.90;;;;;;5049620;28;20037;-83
2023/01/31 09:43:43;;;;;;;21.17;3.00;;;6.90;99.90;;;;;;5047743;28;20136;-83
2023/01/31 09:46:14;;;;;;;17.02;2.70;;;6.50;99.90;;;;;;5053171;28;20090;-82
2023/01/31 09:48:44;;;;;;;16.92;3.10;;;6.50;99.90;;;;;;5046204;28;20495;-83
2023/01/31 09:51:13;;;;;;;14.07;2.80;;;6.50;99.90;;;;;;5045933;28;20037;-83
2023/01/31 09:53:40;;;;;;;17.05;3.45;;;6.60;99.90;;;;;;5047800;28;20408;-83
2023/01/31 09:56:47;;;;;;;18.27;3.03;;;6.60;99.90;;;;;;5052099;28;20079;-82
2023/01/31 09:59:24;;;;;;;26.50;4.68;;;6.60;99.90;;;;;;4965764;28;20042;-83
2023/01/31 10:02:05;;;;;;;17.70;3.03;;;6.60;99.90;;;;;;4971057;28;20078;-82
2023/01/31 10:04:34;;;;;;;17.58;3.20;;;6.90;99.90;;;;;;4971540;28;20065;-83
2023/01/31 10:07:11;;;;;;;14.05;3.33;;;6.60;99.90;;;;;;4971429;28;20126;-83
2023/01/31 10:09:48;;;;;;;19.20;2.72;;;6.90;99.90;;;;;;4971232;28;20047;-83
2023/01/31 10:12:19;;;;;;;26.48;3.60;;;6.60;99.90;;;;;;4971597;28;20038;-82
2023/01/31 10:15:02;;;;;;;14.68;2.95;;;6.60;99.90;;;;;;4966194;28;20053;-83
2023/01/31 10:17:31;;;;;;;19.05;2.88;;;6.60;99.90;;;;;;4958937;28;20051;-83
2023/01/31 10:20:06;;;;;;;12.13;2.90;;;6.70;99.90;;;;;;4963890;28;20050;-83
2023/01/31 10:22:59;;;;;;;17.20;3.13;;;6.70;99.90;;;;;;4953984;28;20231;-83
2023/01/31 10:25:26;;;;;;;21.92;3.20;;;6.70;99.90;;;;;;4954357;28;20064;-83
2023/01/31 10:28:00;;;;;;;25.27;5.13;;;6.70;99.90;;;;;;4967511;28;20522;-83
2023/01/31 10:30:46;;;;;;;14.77;3.53;;;6.70;99.90;;;;;;5014415;28;20068;-83
2023/01/31 10:33:35;;;;;;;15.43;2.88;;;6.70;99.90;;;;;;5038462;28;20063;-83
2023/01/31 10:36:08;;;;;;;14.95;2.85;;;6.70;99.90;;;;;;5041865;28;20080;-83
2023/01/31 10:38:40;;;;;;;22.48;4.57;;;6.80;99.90;;;;;;5046369;28;20044;-83
2023/01/31 10:41:24;;;;;;;14.70;3.03;;;6.90;99.90;;;;;;5050871;28;20190;-83
2023/01/31 10:44:00;;;;;;;13.52;3.10;;;6.80;99.90;;;;;;5044999;28;20037;-83
2023/01/31 10:46:26;;;;;;;19.98;2.85;;;6.70;99.90;;;;;;5051532;28;20037;-83
2023/01/31 10:48:51;;;;;;;16.83;3.60;;;6.70;99.90;;;;;;5036863;28;20045;-83
2023/01/31 10:51:26;;;;;;;20.25;2.58;;;6.70;99.90;;;;;;5044897;28;20040;-83
2023/01/31 10:54:25;;;;;;;16.90;3.40;;;6.70;99.90;;;;;;5051532;28;20095;-83
2023/01/31 10:56:51;;;;;;;16.38;3.25;;;6.70;99.90;;;;;;5051355;28;20033;-82
2023/01/31 10:59:30;;;;;;;13.25;2.97;;;6.70;99.90;;;;;;5046522;28;20063;-83
2023/01/31 11:01:57;;;;;;;14.23;3.20;;;6.70;99.90;;;;;;5050207;28;20041;-83
2023/01/31 11:04:41;;;;;;;16.25;3.35;;;6.70;99.90;;;;;;5024876;28;20049;-83
2023/01/31 11:07:08;;;;;;;17.58;2.85;;;6.70;99.90;;;;;;5051326;28;20514;-82
2023/01/31 11:09:41;;;;;;;15.18;2.80;;;6.70;99.90;;;;;;5051720;28;20128;-83
2023/01/31 11:12:08;;;;;;;16.63;3.17;;;6.70;99.90;;;;;;5050847;28;20044;-83
2023/01/31 11:14:35;;;;;;;14.43;2.95;;;7.40;99.90;;;;;;5044162;28;20124;-83
2023/01/31 11:17:11;;;;;;;18.15;2.92;;;6.80;99.90;;;;;;5041126;28;20040;-83
2023/01/31 11:19:49;;;;;;;17.65;3.45;;;6.70;99.90;;;;;;5046239;28;20164;-82
2023/01/31 11:22:25;;;;;;;17.50;4.07;;;6.80;99.90;;;;;;5049152;28;20083;-83
2023/01/31 11:24:52;;;;;;;14.57;3.22;;;6.80;99.90;;;;;;5042841;28;20049;-83
2023/01/31 11:27:39;;;;;;;19.50;2.75;;;6.80;99.90;;;;;;5044624;28;20048;-83
2023/01/31 11:30:17;;;;;;;16.38;3.70;;;6.80;99.90;;;;;;5044012;28;20483;-83
2023/01/31 11:32:43;;;;;;;16.75;3.03;;;6.90;99.90;;;;;;5050866;28;20087;-83
2023/01/31 11:35:12;;;;;;;14.98;2.92;;;6.90;99.90;;;;;;5045135;28;20069;-83
2023/01/31 11:37:52;;;;;;;20.58;3.28;;;7.30;99.90;;;;;;5062077;28;20045;-83
2023/01/31 11:40:31;;;;;;;16.85;2.72;;;6.90;99.90;;;;;;5044811;28;20037;-83
2023/01/31 11:43:03;;;;;;;17.90;2.65;;;6.90;99.90;;;;;;5045610;28;20080;-83
2023/01/31 11:45:42;;;;;;;11.70;2.75;;;7.40;99.90;;;;;;5049899;28;20573;-83
2023/01/31 11:48:12;;;;;;;15.40;2.80;;;6.90;99.90;;;;;;5050780;28;20041;-83
2023/01/31 11:50:41;;;;;;;16.58;2.53;;;6.90;99.90;;;;;;5049065;28;20045;-83
2023/01/31 11:53:22;;;;;;;17.52;3.45;;;7.30;99.90;;;;;;5045967;28;20113;-83
2023/01/31 11:55:49;;;;;;;17.15;2.70;;;7.00;99.90;;;;;;5049600;28;20041;-83
2023/01/31 11:58:23;;;;;;;16.00;3.08;;;7.10;99.90;;;;;;5041068;28;20053;-83
2023/01/31 12:01:05;;;;;;;17.23;2.45;;;7.00;99.90;;;;;;5041666;28;20037;-83
2023/01/31 12:03:31;;;;;;;18.27;3.45;;;7.00;99.90;;;;;;5041174;28;20384;-83
2023/01/31 12:06:03;;;;;;;21.05;3.10;;;7.10;99.90;;;;;;5044467;28;20115;-83
2023/01/31 12:08:39;;;;;;;18.08;3.55;;;7.10;99.90;;;;;;5047681;28;20044;-83
2023/01/31 12:11:19;;;;;;;21.45;4.05;;;7.20;99.90;;;;;;5046211;28;20041;-83
2023/01/31 12:14:11;;;;;;;18.90;3.03;;;7.20;99.90;;;;;;5044452;28;20056;-84
2023/01/31 12:16:37;;;;;;;17.92;3.15;;;7.30;99.90;;;;;;5035606;28;20056;-82
2023/01/31 12:19:12;;;;;;;21.65;2.95;;;7.40;99.90;;;;;;5043888;28;20041;-83
2023/01/31 12:21:56;;;;;;;14.43;3.33;;;7.40;99.90;;;;;;5048580;28;20037;-82
2023/01/31 12:24:50;;;;;;;21.20;3.30;;;7.50;99.90;;;;;;5038391;28;20053;-81
2023/01/31 12:27:33;;;;;;;15.45;3.47;;;7.50;99.90;;;;;;5040885;28;20052;-82
2023/01/31 12:30:04;;;;;;;15.55;3.33;;;7.60;99.90;;;;;;5044674;28;20049;-81
2023/01/31 12:32:53;;;;;;;19.17;3.40;;;7.70;99.90;;;;;;5040618;28;20114;-82
2023/01/31 12:35:37;;;;;;;14.38;3.08;;;7.70;99.90;;;;;;5049393;28;20040;-82
2023/01/31 12:38:21;;;;;;;12.77;2.70;;;7.70;99.90;;;;;;5031720;28;20037;-83
2023/01/31 12:40:58;;;;;;;22.73;3.78;;;7.80;99.90;;;;;;5047777;28;20186;-83
2023/01/31 12:43:43;;;;;;;20.25;3.03;;;7.80;99.90;;;;;;5045479;28;20150;-83
2023/01/31 12:46:29;;;;;;;14.02;2.75;;;8.20;99.90;;;;;;5041082;28;20080;-83
2023/01/31 12:48:54;;;;;;;16.45;2.75;;;7.90;99.90;;;;;;5049699;28;20123;-82
2023/01/31 12:51:41;;;;;;;18.48;2.83;;;7.90;99.90;;;;;;5047280;28;20124;-82
2023/01/31 12:54:28;;;;;;;17.30;2.85;;;8.00;99.90;;;;;;5048856;28;20040;-82
2023/01/31 12:57:21;;;;;;;12.73;2.13;;;8.10;99.90;;;;;;5048156;28;21501;-84
2023/01/31 12:59:59;;;;;;;14.02;2.53;;;8.10;99.90;;;;;;5043475;28;20116;-84
2023/01/31 13:02:56;;;;;;;20.10;2.88;;;8.20;99.90;;;;;;5051314;28;20081;-84
2023/01/31 13:05:36;;;;;;;14.23;2.50;;;8.10;99.90;;;;;;5052850;28;20116;-83
2023/01/31 13:08:16;;;;;;;16.85;2.63;;;8.30;99.90;;;;;;5052902;28;20043;-84
2023/01/31 13:10:59;;;;;;;13.00;2.75;;;8.30;99.90;;;;;;5046107;28;20049;-84
2023/01/31 13:13:40;;;;;;;15.88;2.40;;;8.40;99.90;;;;;;5044090;28;20510;-84
2023/01/31 13:16:20;;;;;;;11.13;2.70;;;8.40;99.90;;;;;;5035251;28;20029;-84
2023/01/31 13:18:49;;;;;;;14.23;2.42;;;8.40;99.90;;;;;;5041546;28;20053;-82
2023/01/31 13:21:18;;;;;;;12.52;1.90;;;8.30;99.90;;;;;;5043882;28;20174;-83